Time;durP1;ratioP1;P1;durP2;ratioP2;P2;SDS_P1;SDS_P2;PMS_P1;PMS_P2;Temp;Humidity;BMP_temperature;BMP_pressure;BME280_temperature;BME280_humidity;BME280_pressure;Samples;Min_cycle;Max_cycle;Signal;HPM_P1;HPM_P2
2021/06/23 00:00:34;;;;;;;4.05;3.67;;;;;;;18.56;69.12;100166.66;10541791;28;20103;-72
2021/06/23 00:05:36;;;;;;;4.93;4.30;;;;;;;18.35;70.95;100165.31;10531844;28;20044;-72
2021/06/23 00:10:38;;;;;;;3.80;3.50;;;;;;;18.31;70.89;100167.31;10549555;28;20040;-72
2021/06/23 00:15:40;;;;;;;4.25;3.88;;;;;;;18.50;69.76;100172.34;10550625;28;20039;-71
2021/06/23 00:20:41;;;;;;;4.35;3.97;;;;;;;18.45;70.31;100169.09;10549845;28;20114;-72
2021/06/23 00:25:43;;;;;;;8.25;5.07;;;;;;;18.10;71.52;100157.97;10550184;28;20047;-72
2021/06/23 00:30:45;;;;;;;4.75;4.30;;;;;;;18.02;72.13;100147.81;10549129;28;20137;-72
2021/06/23 00:35:47;;;;;;;9.50;4.60;;;;;;;18.54;69.74;100149.03;10549009;28;20055;-71
2021/06/23 00:40:48;;;;;;;4.15;3.78;;;;;;;18.41;70.07;100163.13;10549389;28;20047;-72
2021/06/23 00:45:51;;;;;;;5.18;4.57;;;;;;;18.49;69.47;100151.16;10548289;28;20036;-72
2021/06/23 00:50:54;;;;;;;6.43;4.75;;;;;;;18.40;70.38;100142.78;10531315;28;20040;-71
2021/06/23 00:56:31;;;;;;;5.00;4.55;;;;;;;18.24;70.66;100143.81;10546362;28;20076;-71
2021/06/23 01:01:36;;;;;;;6.57;5.97;;;;;;;18.00;70.62;100139.06;10547474;28;20040;-72
2021/06/23 01:06:39;;;;;;;5.47;4.97;;;;;;;17.77;71.06;100137.78;10530520;28;20036;-71
2021/06/23 01:11:56;;;;;;;5.15;4.80;;;;;;;17.77;70.81;100143.13;10547473;28;20040;-71
2021/06/23 01:17:02;;;;;;;5.68;5.18;;;;;;;17.86;71.11;100155.00;10548713;28;20039;-72
2021/06/23 01:22:04;;;;;;;6.55;5.03;;;;;;;17.67;71.60;100152.56;10548733;28;20119;-71
2021/06/23 01:27:08;;;;;;;5.85;4.75;;;;;;;17.68;71.71;100145.44;10530034;28;20044;-71
2021/06/23 01:32:10;;;;;;;5.28;4.78;;;;;;;17.69;71.88;100150.66;10548053;28;20036;-71
2021/06/23 01:37:12;;;;;;;5.65;5.00;;;;;;;17.81;71.79;100167.72;10530328;28;20417;-72
2021/06/23 01:42:14;;;;;;;5.90;4.97;;;;;;;17.84;71.46;100149.78;10546785;28;20047;-73
2021/06/23 01:47:16;;;;;;;5.82;5.43;;;;;;;17.70;71.45;100159.47;10547847;28;20043;-72
2021/06/23 01:52:18;;;;;;;6.40;5.30;;;;;;;17.56;72.31;100166.47;10547378;28;20040;-73
2021/06/23 01:57:21;;;;;;;6.20;5.68;;;;;;;17.55;72.21;100171.88;10529730;28;20047;-72
2021/06/23 02:02:28;;;;;;;5.68;5.05;;;;;;;17.61;71.07;100172.38;10527668;28;20047;-72
2021/06/23 02:08:05;;;;;;;5.50;5.03;;;;;;;17.55;71.11;100177.19;10545387;28;20089;-72
2021/06/23 02:13:28;;;;;;;5.80;4.78;;;;;;;17.30;71.66;100170.63;10529948;28;20138;-72
2021/06/23 02:18:41;;;;;;;5.30;4.72;;;;;;;17.29;71.69;100170.72;10527762;28;20052;-71
2021/06/23 02:23:48;;;;;;;4.35;4.00;;;;;;;17.51;70.45;100178.31;10526479;28;20097;-72
2021/06/23 02:28:53;;;;;;;6.95;4.32;;;;;;;17.46;70.61;100175.94;10527588;28;20383;-72
2021/06/23 02:33:56;;;;;;;5.93;4.50;;;;;;;17.35;71.06;100194.28;10545537;28;20425;-72
2021/06/23 02:39:11;;;;;;;5.70;4.25;;;;;;;17.33;70.94;100193.53;10529754;28;20044;-72
2021/06/23 02:44:14;;;;;;;5.40;4.35;;;;;;;17.42;71.02;100193.00;10543402;28;20058;-72
2021/06/23 02:49:18;;;;;;;4.55;4.15;;;;;;;17.43;71.67;100191.19;10544355;28;20125;-72
2021/06/23 02:54:21;;;;;;;3.85;3.55;;;;;;;17.47;70.29;100203.34;10544693;28;20048;-72
2021/06/23 02:59:37;;;;;;;5.82;4.65;;;;;;;17.34;70.60;100206.72;10527930;28;20394;-72
2021/06/23 03:04:47;;;;;;;7.05;4.20;;;;;;;17.39;70.71;100215.28;10525517;28;20048;-72
2021/06/23 03:10:08;;;;;;;4.70;3.63;;;;;;;17.20;71.03;100229.69;10542093;28;20495;-71
2021/06/23 03:15:29;;;;;;;4.78;4.38;;;;;;;17.37;70.61;100242.88;10543368;28;20051;-71
2021/06/23 03:20:40;;;;;;;5.47;4.93;;;;;;;17.22;70.88;100230.44;10534226;22;20037;-72
2021/06/23 03:25:43;;;;;;;5.13;4.47;;;;;;;17.42;70.00;100230.19;10457476;28;20395;-72
2021/06/23 03:30:45;;;;;;;4.60;4.20;;;;;;;17.51;69.13;100234.13;10489293;28;20049;-72
2021/06/23 03:35:48;;;;;;;5.00;3.83;;;;;;;17.67;69.33;100240.28;10501527;28;20097;-73
2021/06/23 03:40:49;;;;;;;8.63;3.95;;;;;;;17.82;68.07;100254.50;10506082;28;20076;-73
2021/06/23 03:45:53;;;;;;;4.80;4.40;;;;;;;17.47;70.00;100249.38;10506744;28;20074;-72
2021/06/23 03:50:56;;;;;;;4.82;4.43;;;;;;;17.29;70.47;100235.34;10506257;28;20044;-73
2021/06/23 03:55:58;;;;;;;4.82;4.30;;;;;;;17.26;70.14;100237.31;10508500;28;20048;-73
2021/06/23 04:01:03;;;;;;;7.18;4.15;;;;;;;17.39;69.58;100247.16;10505919;28;20032;-73
2021/06/23 04:06:13;;;;;;;6.93;4.03;;;;;;;17.23;70.12;100241.00;10504651;28;20059;-72
2021/06/23 04:11:15;;;;;;;5.68;4.38;;;;;;;17.13;70.62;100234.47;10505564;28;20040;-73
2021/06/23 04:16:17;;;;;;;4.32;3.92;;;;;;;17.32;70.18;100240.50;10488205;28;20131;-73
2021/06/23 04:21:19;;;;;;;7.20;4.63;;;;;;;17.32;69.63;100245.81;10509016;28;20040;-72
2021/06/23 04:26:22;;;;;;;5.30;4.35;;;;;;;17.49;70.44;100267.94;10506719;28;20032;-73
2021/06/23 04:31:25;;;;;;;5.72;3.92;;;;;;;17.47;69.96;100273.31;10487192;28;20040;-73
2021/06/23 04:36:27;;;;;;;5.85;4.53;;;;;;;17.36;70.36;100283.69;10503199;28;20456;-72
2021/06/23 04:41:29;;;;;;;5.50;4.82;;;;;;;17.31;70.15;100285.72;10489065;28;20505;-71
2021/06/23 04:46:33;;;;;;;7.35;4.63;;;;;;;17.19;71.01;100291.75;10489856;28;20072;-71
2021/06/23 04:51:39;;;;;;;7.50;5.00;;;;;;;17.35;71.72;100292.59;10486008;28;20491;-71
2021/06/23 04:56:41;;;;;;;5.18;4.68;;;;;;;17.52;70.99;100284.53;10506733;28;20410;-73
2021/06/23 05:01:43;;;;;;;6.65;5.32;;;;;;;17.82;69.88;100281.09;10504159;28;20131;-72
2021/06/23 05:06:45;;;;;;;8.30;6.10;;;;;;;17.58;70.65;100278.88;10504173;28;20048;-72
2021/06/23 05:11:46;;;;;;;5.50;4.47;;;;;;;17.64;70.97;100294.47;10504117;28;20067;-72
2021/06/23 05:16:50;;;;;;;5.95;5.40;;;;;;;17.66;70.67;100305.00;10503639;28;20048;-71
2021/06/23 05:21:52;;;;;;;8.25;5.57;;;;;;;17.90;69.46;100293.00;10486305;28;20046;-73
2021/06/23 05:26:54;;;;;;;6.57;5.90;;;;;;;17.62;70.85;100303.50;10504666;28;20045;-73
2021/06/23 05:31:55;;;;;;;6.13;5.50;;;;;;;17.44;71.80;100310.69;10487461;28;20043;-73
2021/06/23 05:36:57;;;;;;;7.82;5.55;;;;;;;17.67;71.00;100313.88;10485301;28;20076;-73
2021/06/23 05:41:59;;;;;;;5.25;4.85;;;;;;;17.61;70.97;100320.38;10503744;28;20144;-72
2021/06/23 05:47:01;;;;;;;8.40;5.32;;;;;;;17.72;70.55;100331.28;10505387;28;20041;-73
2021/06/23 05:52:04;;;;;;;7.50;5.07;;;;;;;17.74;70.36;100332.06;10485184;28;20040;-72
2021/06/23 05:57:06;;;;;;;5.95;5.32;;;;;;;17.71;70.15;100329.56;10467578;28;20075;-72
2021/06/23 06:02:08;;;;;;;6.22;4.40;;;;;;;17.89;70.04;100327.69;10484280;28;20404;-74
2021/06/23 06:07:10;;;;;;;8.15;4.82;;;;;;;18.10;69.27;100337.06;10502863;28;20070;-72
2021/06/23 06:12:11;;;;;;;9.73;5.22;;;;;;;18.13;68.91;100336.03;10500771;28;20040;-73
2021/06/23 06:17:13;;;;;;;6.15;4.90;;;;;;;18.31;67.87;100334.97;10501077;28;20044;-72
2021/06/23 06:22:15;;;;;;;5.55;4.97;;;;;;;18.33;67.49;100345.53;10466328;28;20048;-73
2021/06/23 06:27:16;;;;;;;6.85;6.18;;;;;;;18.25;67.18;100355.75;10500699;28;20131;-73
2021/06/23 06:32:18;;;;;;;10.65;5.93;;;;;;;18.39;67.58;100361.97;10501340;28;20044;-72
2021/06/23 06:37:19;;;;;;;6.13;5.57;;;;;;;18.21;68.19;100370.19;10500315;28;20091;-72
2021/06/23 06:42:21;;;;;;;5.90;5.50;;;;;;;18.28;67.50;100369.75;10482367;28;20048;-71
2021/06/23 06:47:23;;;;;;;6.47;5.97;;;;;;;18.18;67.89;100367.69;10499942;28;20051;-72
2021/06/23 06:52:25;;;;;;;6.57;5.97;;;;;;;18.17;68.27;100364.19;10500286;28;20486;-73
2021/06/23 06:57:27;;;;;;;7.00;6.40;;;;;;;18.07;68.56;100369.19;10499666;28;20123;-72
2021/06/23 07:02:29;;;;;;;6.60;6.00;;;;;;;18.33;67.88;100373.00;10482573;28;20041;-72
2021/06/23 07:07:30;;;;;;;7.20;6.43;;;;;;;18.14;68.62;100377.66;10484315;28;20056;-72
2021/06/23 07:12:32;;;;;;;9.02;7.80;;;;;;;18.05;68.19;100379.03;10483707;28;20041;-72
2021/06/23 07:17:34;;;;;;;9.38;7.57;;;;;;;18.04;68.45;100377.31;10482099;28;20044;-72
2021/06/23 07:22:36;;;;;;;8.35;7.75;;;;;;;18.39;67.32;100375.28;10500112;28;20047;-71
2021/06/23 07:27:38;;;;;;;8.95;8.10;;;;;;;18.62;67.55;100365.94;10502465;28;20045;-73
2021/06/23 07:32:47;;;;;;;9.80;8.05;;;;;;;18.65;67.09;100360.44;10481327;28;20044;-71
2021/06/23 07:37:50;;;;;;;9.30;8.57;;;;;;;18.43;67.97;100367.97;10501579;28;20115;-72
2021/06/23 07:42:52;;;;;;;9.55;8.73;;;;;;;18.46;68.69;100375.81;10499105;28;20040;-72
2021/06/23 07:47:54;;;;;;;8.75;7.93;;;;;;;18.70;68.26;100370.84;10499801;28;20045;-72
2021/06/23 07:53:06;;;;;;;8.85;8.20;;;;;;;18.61;68.52;100384.66;10497815;28;20044;-72
2021/06/23 08:09:03;;;;;;;10.15;9.45;;;;;;;18.39;71.01;100393.91;10498747;28;20048;-73
2021/06/23 08:14:05;;;;;;;9.80;9.07;;;;;;;18.66;70.51;100394.09;10498366;28;20048;-72
2021/06/23 08:19:07;;;;;;;14.52;8.60;;;;;;;18.78;70.32;100394.34;10499147;28;20044;-72
2021/06/23 08:24:08;;;;;;;7.85;7.25;;;;;;;18.82;69.86;100385.22;10521969;28;20044;-73
2021/06/23 08:29:10;;;;;;;10.60;9.40;;;;;;;19.19;67.49;100388.31;10546302;28;20516;-73
2021/06/23 08:34:12;;;;;;;10.07;9.38;;;;;;;18.94;68.67;100392.44;10548046;28;20047;-72
2021/06/23 08:39:13;;;;;;;9.85;9.05;;;;;;;18.82;69.63;100395.88;10547718;28;20040;-72
2021/06/23 08:44:15;;;;;;;11.15;10.35;;;;;;;18.87;69.30;100393.78;10549173;28;20040;-72
2021/06/23 08:49:17;;;;;;;10.75;9.82;;;;;;;19.02;68.57;100406.16;10548067;28;20040;-73
2021/06/23 08:54:19;;;;;;;10.60;9.68;;;;;;;18.85;69.58;100401.00;10528511;28;20117;-72
2021/06/23 08:59:21;;;;;;;9.88;8.95;;;;;;;18.77;70.16;100409.47;10547135;28;20374;-73
2021/06/23 09:04:25;;;;;;;12.38;11.48;;;;;;;18.95;68.72;100418.16;10548392;28;20044;-72
2021/06/23 09:09:35;;;;;;;12.02;11.13;;;;;;;18.71;70.25;100420.47;10545810;28;20043;-72
2021/06/23 09:14:38;;;;;;;12.23;11.02;;;;;;;18.25;72.11;100401.84;10545981;28;20509;-73
2021/06/23 09:24:51;;;;;;;13.15;11.95;;;;;;;18.32;72.44;100402.34;10260445;29;20454;-71
2021/06/23 09:29:53;;;;;;;14.18;12.95;;;;;;;18.25;72.32;100374.38;10262122;29;20401;-71
2021/06/23 09:34:55;;;;;;;12.15;11.23;;;;;;;18.62;71.73;100376.59;10260537;28;20054;-71
2021/06/23 09:40:22;;;;;;;12.13;11.23;;;;;;;18.79;70.70;100404.91;10260758;29;20047;-72
2021/06/23 09:45:24;;;;;;;14.07;12.90;;;;;;;18.59;72.04;100422.03;10261649;29;20047;-74
2021/06/23 09:50:29;;;;;;;16.80;15.40;;;;;;;18.37;75.39;100418.91;10260778;29;20489;-71
2021/06/23 09:55:34;;;;;;;15.82;14.55;;;;;;;18.34;76.71;100427.06;10241888;29;20117;-71
2021/06/23 10:00:59;;;;;;;15.55;14.55;;;;;;;18.85;74.53;100432.97;10258432;29;20051;-69
2021/06/23 10:06:42;;;;;;;15.32;14.32;;;;;;;18.71;75.25;100439.13;10260348;29;20600;-69
2021/06/23 10:11:45;;;;;;;18.40;17.25;;;;;;;18.43;78.83;100439.00;10099281;29;20060;-70
2021/06/23 10:17:07;;;;;;;18.27;16.98;;;;;;;18.66;76.66;100454.47;10099308;29;20053;-69
2021/06/23 10:22:10;;;;;;;20.67;19.13;;;;;;;18.36;79.74;100457.97;10116614;29;20055;-69
2021/06/23 10:27:28;;;;;;;19.10;17.92;;;;;;;18.00;79.55;100460.91;10135982;29;20070;-70
2021/06/23 10:32:29;;;;;;;20.67;19.17;;;;;;;17.93;79.80;100458.66;10135363;29;20611;-69
2021/06/23 10:37:36;;;;;;;20.70;19.23;;;;;;;18.25;79.47;100456.88;10135400;29;20101;-70
2021/06/23 10:42:38;;;;;;;21.48;19.98;;;;;;;18.28;79.94;100454.91;10233310;29;20131;-71
2021/06/23 10:47:44;;;;;;;23.20;21.65;;;;;;;18.33;81.02;100451.97;10254945;28;20055;-70
2021/06/23 10:52:47;;;;;;;23.48;22.17;;;;;;;18.29;81.35;100455.75;10257122;29;20054;-70
2021/06/23 10:57:51;;;;;;;24.10;22.50;;;;;;;18.35;82.29;100455.41;10256916;29;20457;-71
2021/06/23 11:02:59;;;;;;;25.63;24.02;;;;;;;18.35;81.48;100456.25;10256497;29;20047;-70
2021/06/23 11:08:01;;;;;;;25.95;23.70;;;;;;;18.47;80.99;100452.03;10256890;29;20043;-70
2021/06/23 11:13:05;;;;;;;24.00;21.92;;;;;;;18.46;79.53;100453.00;10256798;29;20118;-70
2021/06/23 11:18:34;;;;;;;24.67;23.08;;;;;;;18.44;79.67;100464.66;10256445;29;20418;-70
2021/06/23 11:23:59;;;;;;;26.23;24.17;;;;;;;18.40;80.12;100451.53;10286186;28;20051;-70
2021/06/23 11:29:09;;;;;;;24.20;22.38;;;;;;;18.73;79.53;100465.69;10298052;28;20051;-70
2021/06/23 11:34:40;;;;;;;24.30;22.38;;;;;;;18.83;79.04;100464.19;10298788;28;20059;-71
2021/06/23 11:39:43;;;;;;;22.25;20.88;;;;;;;18.86;78.17;100467.53;10298556;28;20039;-71
2021/06/23 11:44:45;;;;;;;21.10;19.45;;;;;;;19.00;77.30;100477.34;10296747;28;20058;-71
2021/06/23 11:49:46;;;;;;;18.88;17.67;;;;;;;18.73;76.92;100477.19;10296902;28;20093;-71
2021/06/23 11:54:49;;;;;;;19.30;18.10;;;;;;;18.70;77.22;100471.19;10297312;28;20051;-71
2021/06/23 11:59:51;;;;;;;20.50;18.95;;;;;;;18.69;77.78;100470.31;10301060;28;20039;-70
2021/06/23 12:04:53;;;;;;;20.45;19.05;;;;;;;18.31;77.30;100473.34;10303709;28;20576;-71
2021/06/23 12:09:55;;;;;;;20.95;19.60;;;;;;;18.36;78.29;100479.25;10270668;28;20136;-71
2021/06/23 12:14:57;;;;;;;22.50;20.85;;;;;;;18.52;78.55;100479.25;10303693;28;20042;-70
2021/06/23 12:20:01;;;;;;;21.42;20.05;;;;;;;18.78;77.94;100479.56;10303339;28;20042;-71
2021/06/23 12:25:03;;;;;;;20.25;18.85;;;;;;;18.74;76.56;100494.00;10304115;28;20113;-70
2021/06/23 12:30:06;;;;;;;22.05;20.65;;;;;;;18.65;77.83;100490.91;10285809;28;20106;-71
2021/06/23 12:35:08;;;;;;;20.20;18.95;;;;;;;18.68;77.99;100495.19;10301217;28;20046;-70
2021/06/23 12:40:11;;;;;;;17.30;16.20;;;;;;;18.88;76.68;100494.91;10301969;28;20094;-71
2021/06/23 12:45:13;;;;;;;16.60;15.50;;;;;;;18.77;77.81;100480.50;10285072;28;20054;-71
2021/06/23 12:50:18;;;;;;;17.90;16.70;;;;;;;18.97;76.03;100482.84;10302022;28;20047;-71
2021/06/23 12:55:20;;;;;;;19.38;17.98;;;;;;;18.72;77.88;100485.25;10302159;28;20046;-71
2021/06/23 13:00:22;;;;;;;17.75;16.60;;;;;;;18.77;77.14;100473.41;10300761;28;20067;-70
2021/06/23 13:05:24;;;;;;;19.95;18.55;;;;;;;19.00;77.12;100476.50;10269569;28;20057;-70
2021/06/23 13:10:28;;;;;;;18.65;17.38;;;;;;;19.04;76.78;100480.69;10285186;28;20396;-70
2021/06/23 13:15:29;;;;;;;19.52;18.38;;;;;;;18.99;75.90;100482.75;10299694;28;20046;-70
2021/06/23 13:20:35;;;;;;;20.50;18.98;;;;;;;18.77;76.81;100491.16;10300257;28;20128;-70
2021/06/23 13:25:37;;;;;;;19.23;18.08;;;;;;;19.02;77.00;100499.41;10300397;28;20051;-70
2021/06/23 13:30:38;;;;;;;18.55;17.25;;;;;;;19.42;74.13;100491.69;10300787;28;20077;-71
2021/06/23 13:35:40;;;;;;;18.83;17.65;;;;;;;19.02;75.56;100501.22;10298914;28;20058;-71
2021/06/23 13:40:42;;;;;;;20.67;19.50;;;;;;;19.03;77.95;100501.13;10300220;28;20122;-71
2021/06/23 13:45:43;;;;;;;18.70;17.58;;;;;;;19.01;77.29;100488.88;10301011;28;20043;-72
2021/06/23 13:50:47;;;;;;;19.02;17.63;;;;;;;18.80;76.91;100490.97;10300310;28;20381;-71
2021/06/23 13:55:49;;;;;;;17.50;16.33;;;;;;;18.96;77.44;100486.47;10299734;28;20057;-72
2021/06/23 14:00:51;;;;;;;18.75;17.65;;;;;;;18.93;78.75;100494.63;10281800;28;20113;-72
2021/06/23 14:05:54;;;;;;;17.98;16.77;;;;;;;18.79;78.44;100492.78;10299351;28;20102;-72
2021/06/23 14:10:55;;;;;;;17.23;16.27;;;;;;;18.96;77.43;100486.47;10298302;28;20445;-72
2021/06/23 14:15:57;;;;;;;19.05;17.85;;;;;;;18.69;78.44;100477.41;10299862;28;20452;-72
2021/06/23 14:20:59;;;;;;;17.90;16.80;;;;;;;18.79;78.18;100474.16;10283338;28;20484;-71
2021/06/23 14:26:04;;;;;;;20.15;18.88;;;;;;;18.57;78.81;100479.84;10299275;28;20125;-72
2021/06/23 14:31:06;;;;;;;18.27;17.17;;;;;;;18.47;79.44;100469.81;10297309;28;20043;-71
2021/06/23 14:36:08;;;;;;;18.25;17.15;;;;;;;18.79;78.91;100473.28;10298069;28;20042;-73
2021/06/23 14:41:09;;;;;;;17.13;15.93;;;;;;;19.02;78.69;100458.59;10297799;28;20129;-71
2021/06/23 14:46:11;;;;;;;16.88;15.75;;;;;;;18.72;78.41;100459.47;10297101;28;20049;-72
2021/06/23 14:51:13;;;;;;;16.60;14.77;;;;;;;18.62;77.55;100452.94;10297465;28;20043;-72
2021/06/23 14:56:14;;;;;;;14.00;13.10;;;;;;;19.01;76.21;100457.75;10297070;28;20122;-72
2021/06/23 15:01:17;;;;;;;14.93;14.02;;;;;;;18.59;78.03;100450.44;10296447;28;20051;-72
2021/06/23 15:06:18;;;;;;;15.20;14.13;;;;;;;18.94;77.40;100452.88;10297607;28;20543;-72
2021/06/23 15:11:21;;;;;;;14.60;13.70;;;;;;;19.07;75.77;100464.50;10296750;28;20039;-73
2021/06/23 15:16:25;;;;;;;14.30;13.50;;;;;;;19.58;75.97;100460.47;10296986;28;20132;-73
2021/06/23 15:21:27;;;;;;;11.93;11.02;;;;;;;19.96;71.56;100438.53;10356460;23;20041;-73
2021/06/23 15:26:28;;;;;;;12.10;11.27;;;;;;;20.16;71.44;100430.09;10441950;28;20045;-74
2021/06/23 15:31:30;;;;;;;10.32;9.73;;;;;;;19.89;72.08;100431.88;10459079;28;20056;-74
2021/06/23 15:36:32;;;;;;;13.00;12.02;;;;;;;19.42;72.57;100431.22;10440715;28;20049;-74
2021/06/23 15:41:34;;;;;;;12.15;11.07;;;;;;;19.34;72.94;100437.97;10423263;28;20140;-74
2021/06/23 15:46:36;;;;;;;12.82;12.02;;;;;;;19.36;72.79;100431.63;10457790;28;20045;-73
2021/06/23 15:51:39;;;;;;;12.75;11.95;;;;;;;19.35;73.12;100434.38;10456981;28;20402;-73
2021/06/23 15:56:40;;;;;;;12.02;11.23;;;;;;;19.20;73.64;100438.84;10455562;28;20049;-73
2021/06/23 16:01:42;;;;;;;13.18;12.38;;;;;;;19.03;74.25;100453.16;10459634;28;20044;-75
2021/06/23 16:06:44;;;;;;;12.60;11.70;;;;;;;18.77;74.87;100461.84;10455855;28;20053;-75
2021/06/23 16:11:45;;;;;;;13.65;12.85;;;;;;;19.01;73.98;100457.75;10457698;28;20049;-74
2021/06/23 16:16:48;;;;;;;13.32;12.43;;;;;;;19.06;72.97;100463.66;10456659;28;20067;-73
2021/06/23 16:21:56;;;;;;;14.18;13.27;;;;;;;18.99;74.25;100459.66;10438739;28;20045;-74
2021/06/23 16:27:01;;;;;;;13.38;12.50;;;;;;;19.18;74.03;100450.56;10454328;28;20049;-74
2021/06/23 16:32:03;;;;;;;13.23;12.23;;;;;;;19.22;72.97;100442.28;10439246;28;20144;-74
2021/06/23 16:37:05;;;;;;;12.95;11.98;;;;;;;19.22;73.33;100439.63;10458687;28;20045;-76
2021/06/23 16:42:07;;;;;;;12.68;11.75;;;;;;;18.79;73.86;100452.00;10455105;28;20037;-75
2021/06/23 16:47:09;;;;;;;11.90;11.00;;;;;;;19.01;73.77;100457.75;10444277;28;20052;-76
2021/06/23 16:52:10;;;;;;;11.48;10.63;;;;;;;19.03;73.99;100447.84;10463210;28;20053;-75
2021/06/23 16:57:12;;;;;;;13.25;12.45;;;;;;;18.83;74.38;100462.38;10446966;28;20060;-77
2021/06/23 17:02:15;;;;;;;12.70;11.80;;;;;;;18.81;74.82;100442.94;10463428;28;20134;-76
2021/06/23 17:07:24;;;;;;;14.32;13.23;;;;;;;18.81;74.13;100450.06;10462173;28;20052;-76
2021/06/23 17:12:26;;;;;;;12.85;11.88;;;;;;;18.77;74.46;100438.78;10464475;28;20072;-76
2021/06/23 17:17:28;;;;;;;13.30;12.32;;;;;;;18.60;75.75;100429.09;10465861;28;20517;-77
2021/06/23 17:22:30;;;;;;;13.60;12.60;;;;;;;18.54;75.58;100417.91;10463106;28;20091;-76
2021/06/23 17:27:31;;;;;;;14.68;13.63;;;;;;;18.61;75.96;100424.59;10462429;28;20060;-76
2021/06/23 17:32:33;;;;;;;14.00;12.95;;;;;;;18.48;75.75;100412.97;10464369;28;20037;-76
2021/06/23 17:37:35;;;;;;;14.88;13.73;;;;;;;18.62;74.98;100407.69;10430307;28;20057;-76
2021/06/23 17:42:37;;;;;;;13.45;12.23;;;;;;;18.72;74.42;100408.88;10468232;28;20040;-75
2021/06/23 17:47:39;;;;;;;13.82;12.93;;;;;;;18.29;75.68;100416.69;10466593;28;20100;-76
2021/06/23 17:52:40;;;;;;;14.13;13.23;;;;;;;18.26;76.27;100411.53;10465283;28;20055;-77
2021/06/23 17:57:42;;;;;;;14.00;12.95;;;;;;;18.38;75.93;100407.31;10466085;28;20044;-77
2021/06/23 18:02:44;;;;;;;15.10;13.55;;;;;;;18.32;76.05;100412.97;10466734;28;20052;-74
2021/06/23 18:07:46;;;;;;;15.55;14.27;;;;;;;18.19;76.37;100407.50;10465534;28;20037;-76
2021/06/23 18:12:48;;;;;;;15.98;14.65;;;;;;;18.07;77.17;100410.91;10450054;28;20033;-76
2021/06/23 18:17:50;;;;;;;14.27;13.27;;;;;;;18.27;76.91;100397.28;10450528;28;20065;-77
2021/06/23 18:22:51;;;;;;;13.73;12.52;;;;;;;18.06;77.54;100390.53;10467400;28;20037;-77
2021/06/23 18:27:53;;;;;;;14.82;13.82;;;;;;;18.00;78.10;100399.72;10469449;28;20045;-77
2021/06/23 18:32:56;;;;;;;14.90;13.77;;;;;;;18.25;77.59;100406.31;10468231;28;20560;-77
2021/06/23 18:37:58;;;;;;;14.07;13.15;;;;;;;18.14;77.57;100409.56;10469332;28;20044;-76
2021/06/23 18:43:00;;;;;;;14.98;13.77;;;;;;;18.00;78.11;100406.84;10466641;28;20104;-77
2021/06/23 18:48:03;;;;;;;14.98;13.98;;;;;;;17.85;79.37;100390.81;10470972;28;20059;-77
2021/06/23 18:53:08;;;;;;;16.30;15.10;;;;;;;17.91;79.20;100397.59;10448436;28;20033;-77
2021/06/23 18:58:13;;;;;;;14.70;13.50;;;;;;;17.94;78.89;100401.88;10465396;28;20103;-77
2021/06/23 19:03:14;;;;;;;15.50;13.95;;;;;;;18.01;78.73;100401.44;10466845;28;20056;-77
2021/06/23 19:08:17;;;;;;;16.83;15.52;;;;;;;17.95;78.88;100409.78;10448684;28;20081;-77
2021/06/23 19:13:18;;;;;;;14.77;13.77;;;;;;;17.93;79.29;100414.34;10466834;28;20099;-77
2021/06/23 19:18:20;;;;;;;14.82;13.73;;;;;;;17.99;78.91;100418.44;10464226;28;20131;-77
2021/06/23 19:23:41;;;;;;;16.90;15.65;;;;;;;17.86;79.26;100400.50;10463243;28;20040;-77
2021/06/23 19:28:43;;;;;;;15.10;13.57;;;;;;;17.85;79.34;100411.25;10465024;28;20049;-76
2021/06/23 19:33:45;;;;;;;15.07;14.07;;;;;;;17.89;79.38;100415.44;10463081;28;20453;-76
2021/06/23 19:38:47;;;;;;;16.30;15.18;;;;;;;17.82;79.10;100403.44;10463952;28;20044;-76
2021/06/23 19:43:52;;;;;;;15.98;14.77;;;;;;;17.76;79.81;100393.16;10460577;28;20052;-77
2021/06/23 19:48:54;;;;;;;15.70;14.25;;;;;;;17.84;79.73;100406.84;10461929;28;20045;-78
2021/06/23 19:53:56;;;;;;;14.32;13.13;;;;;;;18.04;78.64;100417.22;10465234;28;20037;-77
2021/06/23 19:58:57;;;;;;;15.02;13.43;;;;;;;18.28;76.82;100444.25;10463952;28;20068;-77
2021/06/23 20:03:59;;;;;;;18.20;14.95;;;;;;;17.98;78.11;100440.69;10466135;28;20052;-77
2021/06/23 20:09:06;;;;;;;13.23;12.50;;;;;;;17.87;79.28;100426.16;10449161;28;20498;-78
2021/06/23 20:14:08;;;;;;;15.57;13.90;;;;;;;17.81;79.09;100407.03;10452426;28;20037;-76
2021/06/23 20:19:09;;;;;;;16.05;14.68;;;;;;;17.83;79.34;100411.31;10468816;28;20049;-78
2021/06/23 20:24:11;;;;;;;15.07;13.70;;;;;;;17.77;79.78;100418.78;10456151;28;20084;-78
2021/06/23 20:29:13;;;;;;;14.15;12.95;;;;;;;17.90;79.32;100420.66;10473261;28;20048;-78
2021/06/23 20:34:15;;;;;;;14.80;13.43;;;;;;;17.85;79.67;100406.78;10471957;28;20526;-77
2021/06/23 20:39:17;;;;;;;13.55;12.63;;;;;;;17.82;79.95;100387.47;10470495;28;20087;-77
2021/06/23 20:44:18;;;;;;;12.35;11.45;;;;;;;17.82;79.58;100392.78;10471181;28;20041;-76
2021/06/23 20:49:23;;;;;;;12.18;11.48;;;;;;;17.84;79.43;100373.16;10470054;28;20049;-76
2021/06/23 20:54:25;;;;;;;15.13;13.73;;;;;;;17.72;80.10;100370.28;10451069;28;20041;-77
2021/06/23 20:59:27;;;;;;;15.38;14.27;;;;;;;17.67;80.69;100332.47;10453612;28;20529;-76
2021/06/23 21:04:28;;;;;;;14.73;13.38;;;;;;;17.73;80.06;100335.63;10469518;28;20051;-76
2021/06/23 21:09:33;;;;;;;14.35;13.25;;;;;;;17.73;80.44;100310.84;10468687;28;20128;-78
2021/06/23 21:14:37;;;;;;;15.80;14.13;;;;;;;17.83;80.11;100312.91;10469202;28;20045;-78
2021/06/23 21:19:41;;;;;;;14.95;13.75;;;;;;;17.80;79.33;100302.47;10471143;28;20052;-76
2021/06/23 21:24:43;;;;;;;15.20;13.90;;;;;;;17.70;80.02;100308.34;10447321;23;20042;-73
2021/06/23 21:29:48;;;;;;;13.23;12.25;;;;;;;17.83;79.05;100310.25;10447068;28;20049;-72
2021/06/23 21:34:50;;;;;;;13.45;12.32;;;;;;;17.74;79.41;100301.97;10466714;28;20064;-72
2021/06/23 21:39:52;;;;;;;13.75;12.38;;;;;;;17.68;79.67;100303.13;10448399;28;20045;-72
2021/06/23 21:44:54;;;;;;;13.10;11.90;;;;;;;17.88;79.01;100291.38;10447335;28;20076;-73
2021/06/23 21:49:56;;;;;;;12.27;11.32;;;;;;;17.81;79.21;100295.34;10466003;28;20102;-71
2021/06/23 21:55:05;;;;;;;11.35;10.35;;;;;;;18.05;77.13;100309.03;10462572;28;20037;-72
2021/06/23 22:00:15;;;;;;;10.80;9.90;;;;;;;18.01;76.40;100326.09;10462249;28;20045;-72
2021/06/23 22:05:16;;;;;;;11.48;9.13;;;;;;;18.01;76.52;100326.09;10462244;28;20391;-71
2021/06/23 22:10:21;;;;;;;10.32;9.52;;;;;;;17.96;75.72;100315.72;10460829;28;20049;-71
2021/06/23 22:15:28;;;;;;;9.75;8.95;;;;;;;17.86;76.01;100318.06;10462029;28;20040;-71
2021/06/23 22:20:33;;;;;;;9.32;8.73;;;;;;;17.92;75.72;100321.31;10462202;28;20045;-71
2021/06/23 22:25:35;;;;;;;8.85;8.05;;;;;;;17.94;74.00;100327.41;10461006;28;20045;-72
2021/06/23 22:30:37;;;;;;;8.63;7.78;;;;;;;18.03;72.83;100341.03;10462146;28;20053;-71
2021/06/23 22:35:39;;;;;;;8.70;7.93;;;;;;;17.94;72.81;100330.94;10461514;28;20041;-71
2021/06/23 22:41:01;;;;;;;8.38;7.32;;;;;;;18.04;73.14;100336.56;10443078;28;20045;-71
2021/06/23 22:46:04;;;;;;;8.60;7.80;;;;;;;17.69;72.98;100339.41;10461754;28;20079;-71
2021/06/23 22:51:24;;;;;;;7.80;7.18;;;;;;;17.58;74.21;100355.13;10460447;28;20040;-71
2021/06/23 22:56:31;;;;;;;8.52;7.07;;;;;;;17.62;74.23;100341.56;10461129;28;20153;-71
2021/06/23 23:01:35;;;;;;;10.90;8.10;;;;;;;17.50;74.38;100346.72;10442810;28;20094;-71
2021/06/23 23:06:37;;;;;;;8.25;7.45;;;;;;;17.65;73.04;100322.75;10460538;28;20387;-71
2021/06/23 23:11:39;;;;;;;7.85;7.05;;;;;;;17.55;73.48;100324.25;10460753;28;20041;-71